Time;durP1;ratioP1;P1;durP2;ratioP2;P2;SDS_P1;SDS_P2;PMS_P1;PMS_P2;Temp;Humidity;BMP_temperature;BMP_pressure;BME280_temperature;BME280_humidity;BME280_pressure;Samples;Min_cycle;Max_cycle;Signal;HPM_P1;HPM_P2
2022/08/09 00:00:10;;;;;;;3.93;1.50;;;21.30;67.90;;;;;;6889096;28;20438;-84
2022/08/09 00:03:32;;;;;;;4.43;1.50;;;21.30;68.00;;;;;;6887850;28;20442;-85
2022/08/09 00:06:55;;;;;;;3.38;1.50;;;21.10;68.40;;;;;;6888792;28;20474;-85
2022/08/09 00:10:18;;;;;;;4.35;1.50;;;21.10;68.50;;;;;;6888806;28;20766;-86
2022/08/09 00:13:40;;;;;;;6.40;1.50;;;20.90;69.20;;;;;;6888051;28;20446;-86
2022/08/09 00:17:02;;;;;;;4.85;1.70;;;20.70;69.70;;;;;;6880268;28;20803;-85
2022/08/09 00:20:24;;;;;;;3.45;1.50;;;20.50;69.90;;;;;;6898705;28;20939;-86
2022/08/09 00:23:48;;;;;;;5.05;1.60;;;20.50;70.60;;;;;;6883238;28;20446;-86
2022/08/09 00:27:10;;;;;;;3.22;1.60;;;20.50;71.00;;;;;;6898183;28;20457;-86
2022/08/09 00:30:33;;;;;;;3.97;1.58;;;20.70;70.80;;;;;;6889541;28;20449;-85
2022/08/09 00:33:56;;;;;;;4.05;1.42;;;20.80;70.40;;;;;;6892994;28;20449;-84
2022/08/09 00:37:18;;;;;;;5.00;1.40;;;20.80;70.20;;;;;;6890136;28;20439;-87
2022/08/09 00:40:42;;;;;;;3.42;1.70;;;20.70;70.10;;;;;;6898751;28;20510;-88
2022/08/09 00:44:05;;;;;;;4.20;1.42;;;20.80;71.00;;;;;;6892972;28;20438;-86
2022/08/09 00:47:27;;;;;;;3.25;1.40;;;20.80;70.50;;;;;;6901021;28;20438;-87
2022/08/09 00:50:49;;;;;;;3.45;1.50;;;20.80;69.60;;;;;;6909943;28;20969;-85
2022/08/09 00:54:12;;;;;;;4.03;1.70;;;20.70;70.70;;;;;;6925409;28;20432;-84
2022/08/09 00:57:35;;;;;;;4.55;1.52;;;20.60;70.70;;;;;;6932805;28;20903;-84
2022/08/09 01:00:59;;;;;;;3.90;1.40;;;20.70;71.30;;;;;;6923027;28;20444;-86
2022/08/09 01:04:34;;;;;;;4.35;1.60;;;20.60;71.10;;;;;;6918246;28;20439;-85
2022/08/09 01:08:07;;;;;;;4.50;1.60;;;20.60;71.10;;;;;;6921490;28;20519;-86
2022/08/09 01:11:46;;;;;;;4.00;1.60;;;20.40;71.30;;;;;;6920515;28;20536;-87
2022/08/09 01:15:15;;;;;;;4.22;1.70;;;20.40;71.80;;;;;;6918327;28;20504;-86
2022/08/09 01:18:42;;;;;;;3.70;1.70;;;20.30;71.80;;;;;;6912268;28;20433;-87
2022/08/09 01:22:52;;;;;;;3.33;1.52;;;20.30;71.60;;;;;;6888008;28;20444;-85
2022/08/09 01:26:47;;;;;;;3.78;1.60;;;20.20;72.40;;;;;;6877677;28;20472;-81
2022/08/09 01:30:10;;;;;;;3.45;1.73;;;20.20;72.00;;;;;;6904383;28;20852;-84
2022/08/09 01:33:40;;;;;;;4.10;1.80;;;19.90;72.50;;;;;;6891093;28;20437;-82
2022/08/09 01:37:06;;;;;;;4.70;1.70;;;19.70;73.10;;;;;;6905382;28;20816;-82
2022/08/09 01:40:30;;;;;;;3.80;1.80;;;19.40;73.50;;;;;;6900224;28;20482;-80
2022/08/09 01:43:57;;;;;;;3.47;1.65;;;19.30;74.20;;;;;;6909934;28;20444;-82
2022/08/09 01:47:20;;;;;;;4.85;1.70;;;19.40;74.60;;;;;;6873722;28;20438;-82
2022/08/09 01:50:43;;;;;;;4.07;1.70;;;19.60;74.50;;;;;;6892911;28;20438;-82
2022/08/09 01:54:07;;;;;;;4.47;1.70;;;19.50;74.10;;;;;;6892441;28;20454;-83
2022/08/09 01:57:36;;;;;;;4.68;1.70;;;19.50;74.30;;;;;;6893569;28;21118;-82
2022/08/09 02:01:01;;;;;;;3.75;1.70;;;19.40;74.40;;;;;;6892934;28;20462;-80
2022/08/09 02:04:26;;;;;;;4.30;1.90;;;19.50;74.60;;;;;;6888947;28;20481;-80
2022/08/09 02:07:54;;;;;;;4.03;1.70;;;19.50;74.70;;;;;;6867089;28;21522;-79
2022/08/09 02:11:17;;;;;;;5.88;1.60;;;19.40;76.00;;;;;;6889197;28;20820;-81
2022/08/09 02:14:42;;;;;;;3.25;1.77;;;19.50;75.10;;;;;;6888301;28;20438;-81
2022/08/09 02:18:07;;;;;;;4.68;1.90;;;19.40;75.10;;;;;;6888631;28;20438;-82
2022/08/09 02:21:36;;;;;;;3.90;1.80;;;19.40;75.10;;;;;;6889526;28;20442;-82
2022/08/09 02:25:02;;;;;;;3.90;1.70;;;19.40;75.20;;;;;;6887926;28;20453;-83
2022/08/09 02:28:33;;;;;;;4.50;1.80;;;19.40;75.40;;;;;;6888832;28;20434;-81
2022/08/09 02:32:01;;;;;;;4.20;1.70;;;19.30;75.80;;;;;;6891051;28;20485;-85
2022/08/09 02:35:26;;;;;;;4.05;1.80;;;19.20;76.30;;;;;;6891305;28;20439;-85
2022/08/09 02:38:53;;;;;;;4.20;1.93;;;19.20;76.70;;;;;;6890884;28;20446;-84
2022/08/09 02:42:20;;;;;;;3.28;1.67;;;19.20;76.50;;;;;;6888956;28;20445;-85
2022/08/09 02:45:45;;;;;;;3.78;1.80;;;19.10;77.20;;;;;;6890918;28;20900;-85
2022/08/09 02:49:12;;;;;;;4.25;1.95;;;19.00;77.30;;;;;;6907905;28;20760;-86
2022/08/09 02:52:41;;;;;;;3.33;1.80;;;19.00;77.10;;;;;;6919843;28;20440;-84
2022/08/09 02:56:05;;;;;;;4.57;1.70;;;18.90;77.60;;;;;;6930744;28;20444;-84
2022/08/09 02:59:28;;;;;;;4.10;1.90;;;19.00;77.30;;;;;;6928347;28;20456;-84
2022/08/09 03:02:55;;;;;;;4.00;1.73;;;19.00;77.30;;;;;;6918941;28;20447;-85
2022/08/09 03:06:18;;;;;;;4.85;1.90;;;19.00;77.90;;;;;;6890732;28;20497;-82
2022/08/09 03:09:44;;;;;;;3.67;1.90;;;19.00;77.60;;;;;;6888856;28;20438;-79
2022/08/09 03:13:07;;;;;;;4.72;2.00;;;18.90;77.30;;;;;;6887535;28;20445;-82
2022/08/09 03:16:30;;;;;;;4.43;1.97;;;18.60;78.10;;;;;;6887966;28;20457;-82
2022/08/09 03:19:53;;;;;;;4.65;2.00;;;18.50;78.70;;;;;;6904235;28;20448;-82
2022/08/09 03:23:16;;;;;;;4.43;2.00;;;18.40;79.20;;;;;;6907577;28;20440;-81
2022/08/09 03:26:40;;;;;;;3.50;2.00;;;18.10;79.70;;;;;;6912613;28;20472;-81
2022/08/09 03:30:03;;;;;;;4.20;1.90;;;18.10;80.50;;;;;;6911380;28;20447;-81
2022/08/09 03:33:26;;;;;;;4.00;2.10;;;18.30;80.80;;;;;;6897485;28;20935;-82
2022/08/09 03:36:49;;;;;;;4.40;2.00;;;18.30;80.00;;;;;;6893516;28;20471;-81
2022/08/09 03:40:16;;;;;;;3.20;1.92;;;18.20;80.30;;;;;;6913733;28;20459;-80
2022/08/09 03:43:40;;;;;;;5.38;2.20;;;18.20;80.20;;;;;;6900272;28;20463;-82
2022/08/09 03:47:02;;;;;;;5.07;2.10;;;18.20;80.10;;;;;;6884675;28;20459;-82
2022/08/09 03:50:27;;;;;;;5.40;2.20;;;18.10;80.30;;;;;;6859301;28;20452;-81
2022/08/09 03:53:51;;;;;;;4.82;2.08;;;18.10;80.60;;;;;;6883688;28;20434;-82
2022/08/09 03:57:15;;;;;;;3.05;1.70;;;18.00;81.10;;;;;;6886596;28;20430;-81
2022/08/09 04:00:39;;;;;;;4.10;2.10;;;18.10;81.20;;;;;;6886867;28;20528;-81
2022/08/09 04:04:03;;;;;;;4.57;2.00;;;18.20;80.70;;;;;;6886828;28;20434;-82
2022/08/09 04:07:27;;;;;;;4.05;1.92;;;18.20;81.20;;;;;;6885822;28;20923;-82
2022/08/09 04:10:49;;;;;;;3.80;1.83;;;18.20;81.20;;;;;;6886958;28;20442;-80
2022/08/09 04:14:11;;;;;;;5.00;2.10;;;18.20;80.90;;;;;;6886175;28;20438;-81
2022/08/09 04:17:35;;;;;;;5.10;2.17;;;18.00;80.90;;;;;;6887679;28;20433;-81
2022/08/09 04:20:57;;;;;;;4.43;2.10;;;17.80;81.90;;;;;;6888982;28;20836;-83
2022/08/09 04:24:19;;;;;;;4.53;2.05;;;17.90;83.00;;;;;;6891891;28;20437;-82
2022/08/09 04:27:41;;;;;;;3.83;2.10;;;18.00;82.10;;;;;;6891857;28;20445;-80
2022/08/09 04:31:07;;;;;;;4.00;2.20;;;18.10;81.70;;;;;;6892156;28;20511;-80
2022/08/09 04:34:32;;;;;;;4.43;2.33;;;18.00;81.90;;;;;;6901644;28;20493;-80
2022/08/09 04:37:54;;;;;;;5.32;2.20;;;18.00;82.20;;;;;;6895741;28;20445;-81
2022/08/09 04:41:16;;;;;;;4.00;2.30;;;18.10;82.50;;;;;;6891195;28;20445;-82
2022/08/09 04:44:38;;;;;;;5.70;2.30;;;18.10;82.60;;;;;;6891309;28;20438;-81
2022/08/09 04:48:00;;;;;;;4.57;2.30;;;18.00;82.60;;;;;;6898347;28;20451;-80
2022/08/09 04:51:24;;;;;;;5.10;2.25;;;17.80;83.20;;;;;;6918188;28;20436;-80
2022/08/09 04:54:47;;;;;;;4.30;2.20;;;17.70;83.40;;;;;;6917844;28;20436;-80
2022/08/09 04:58:09;;;;;;;4.60;2.40;;;17.60;83.60;;;;;;6892800;28;20504;-82
2022/08/09 05:01:31;;;;;;;3.65;2.33;;;17.50;84.40;;;;;;6890205;28;20445;-82
2022/08/09 05:04:53;;;;;;;4.50;2.40;;;17.40;84.90;;;;;;6893803;28;20449;-80
2022/08/09 05:08:16;;;;;;;4.30;2.60;;;17.40;85.00;;;;;;6914371;28;20446;-79
2022/08/09 05:11:38;;;;;;;5.20;2.40;;;17.50;85.40;;;;;;6891284;28;20476;-81
2022/08/09 05:15:02;;;;;;;4.18;2.53;;;17.60;85.50;;;;;;6891052;28;20454;-81
2022/08/09 05:18:28;;;;;;;4.90;2.60;;;17.80;85.50;;;;;;6888074;28;20438;-82
2022/08/09 05:21:50;;;;;;;4.90;2.70;;;17.80;85.30;;;;;;6904872;28;20436;-81
2022/08/09 05:25:15;;;;;;;4.68;2.63;;;17.90;85.20;;;;;;6900569;28;20493;-81
2022/08/09 05:28:37;;;;;;;5.35;2.70;;;17.90;85.70;;;;;;6890501;28;20457;-81
2022/08/09 05:32:00;;;;;;;5.30;2.70;;;18.00;85.50;;;;;;6889738;28;20437;-82
2022/08/09 05:35:22;;;;;;;4.93;3.10;;;18.00;85.00;;;;;;6890623;28;20478;-82
2022/08/09 05:38:44;;;;;;;6.65;3.20;;;17.80;85.20;;;;;;6894212;28;20486;-80
2022/08/09 05:42:08;;;;;;;8.52;3.95;;;17.80;85.80;;;;;;6895043;28;20472;-82
2022/08/09 05:45:30;;;;;;;6.70;4.30;;;17.90;86.00;;;;;;6898850;28;20491;-82
2022/08/09 05:48:52;;;;;;;8.93;4.20;;;17.90;86.20;;;;;;6890327;28;20462;-81
2022/08/09 05:52:14;;;;;;;8.48;4.68;;;18.00;86.40;;;;;;6890200;28;20435;-81
2022/08/09 05:55:37;;;;;;;7.03;4.50;;;18.00;86.40;;;;;;6894307;28;20442;-81
2022/08/09 05:59:00;;;;;;;6.97;4.90;;;18.00;86.70;;;;;;6921549;28;20434;-79
2022/08/09 06:02:22;;;;;;;8.07;4.73;;;18.00;86.90;;;;;;6922043;28;20433;-81
2022/08/09 06:05:44;;;;;;;8.07;4.60;;;18.10;86.90;;;;;;6921618;28;20442;-80
2022/08/09 06:09:06;;;;;;;7.65;4.80;;;18.20;87.10;;;;;;6923157;28;20461;-81
2022/08/09 06:12:29;;;;;;;7.63;4.82;;;18.30;87.30;;;;;;6922997;28;20441;-81
2022/08/09 06:15:52;;;;;;;7.30;5.00;;;18.40;87.10;;;;;;6910759;28;20999;-81
2022/08/09 06:19:14;;;;;;;8.57;5.18;;;18.40;86.90;;;;;;6892169;28;20430;-81
2022/08/09 06:22:38;;;;;;;9.27;5.72;;;18.50;86.90;;;;;;6892452;28;20921;-81
2022/08/09 06:26:00;;;;;;;7.85;5.63;;;18.60;85.70;;;;;;6892345;28;20435;-82
2022/08/09 06:29:22;;;;;;;8.70;5.60;;;18.70;85.50;;;;;;6891437;28;20431;-82
2022/08/09 06:32:46;;;;;;;8.68;5.30;;;18.80;85.50;;;;;;6889781;28;20431;-80
2022/08/09 06:36:08;;;;;;;9.73;5.43;;;18.80;85.40;;;;;;6889482;28;20434;-81
2022/08/09 06:39:31;;;;;;;8.93;5.18;;;18.90;85.70;;;;;;6900462;28;20410;-81
2022/08/09 06:42:54;;;;;;;7.47;4.85;;;19.00;85.20;;;;;;6918125;28;20438;-81
2022/08/09 06:46:17;;;;;;;7.97;4.50;;;19.00;84.50;;;;;;6893336;28;20434;-82
2022/08/09 06:49:40;;;;;;;7.50;4.50;;;19.10;83.70;;;;;;6909019;28;20992;-83
2022/08/09 06:53:04;;;;;;;6.50;3.90;;;19.20;83.60;;;;;;6913949;28;20944;-81
2022/08/09 06:56:26;;;;;;;7.13;4.25;;;19.30;83.10;;;;;;6887508;28;20470;-82
2022/08/09 06:59:48;;;;;;;7.45;4.15;;;19.40;83.00;;;;;;6885138;28;20457;-81
2022/08/09 07:03:11;;;;;;;8.77;4.07;;;19.50;82.80;;;;;;6883622;28;20484;-79
2022/08/09 07:06:35;;;;;;;7.22;4.15;;;19.50;83.10;;;;;;6884528;28;20473;-80
2022/08/09 07:09:57;;;;;;;6.88;3.90;;;19.60;82.80;;;;;;6884445;28;20437;-80
2022/08/09 07:13:19;;;;;;;7.78;3.92;;;19.70;83.00;;;;;;6883057;28;20434;-81
2022/08/09 07:16:41;;;;;;;8.75;4.55;;;19.80;82.60;;;;;;6898356;28;20460;-81
2022/08/09 07:20:06;;;;;;;7.30;3.80;;;19.90;82.50;;;;;;6912311;28;20456;-81
2022/08/09 07:23:29;;;;;;;7.27;3.70;;;20.00;82.60;;;;;;6911403;28;20436;-82
2022/08/09 07:26:51;;;;;;;5.97;3.33;;;20.10;82.30;;;;;;6911371;28;20468;-80
2022/08/09 07:30:14;;;;;;;7.75;3.40;;;20.30;81.80;;;;;;6910427;28;20488;-82
2022/08/09 07:33:36;;;;;;;7.90;3.30;;;20.30;82.00;;;;;;6913143;28;20906;-83
2022/08/09 07:36:58;;;;;;;6.68;3.10;;;20.40;81.80;;;;;;6912266;28;20471;-83
2022/08/09 07:40:22;;;;;;;7.30;3.30;;;20.40;82.20;;;;;;6911303;28;20436;-83
2022/08/09 07:43:44;;;;;;;6.90;3.00;;;20.60;82.10;;;;;;6901299;28;20813;-82
2022/08/09 07:47:06;;;;;;;10.80;3.30;;;20.60;82.00;;;;;;6884390;28;20442;-81
2022/08/09 07:50:29;;;;;;;6.25;3.20;;;20.70;81.50;;;;;;6884585;28;20442;-82
2022/08/09 07:53:52;;;;;;;9.60;3.20;;;20.80;81.60;;;;;;6884696;28;20449;-82
2022/08/09 07:57:16;;;;;;;5.73;3.10;;;20.80;81.50;;;;;;6883689;28;20439;-82
2022/08/09 08:00:38;;;;;;;7.13;2.70;;;20.90;81.30;;;;;;6861496;28;20481;-84
2022/08/09 08:04:00;;;;;;;7.15;2.85;;;21.10;81.50;;;;;;6885997;28;20441;-77
2022/08/09 08:07:22;;;;;;;7.80;2.80;;;21.20;81.30;;;;;;6888115;28;20492;-83
2022/08/09 08:10:44;;;;;;;8.68;2.90;;;21.30;80.80;;;;;;6888059;28;20434;-85
2022/08/09 08:14:08;;;;;;;4.93;2.60;;;21.40;80.80;;;;;;6885559;28;20434;-76
2022/08/09 08:17:30;;;;;;;6.47;2.60;;;21.50;80.20;;;;;;6885666;28;20473;-81
2022/08/09 08:20:52;;;;;;;8.95;2.80;;;21.60;80.40;;;;;;6884305;28;20430;-83
2022/08/09 08:24:14;;;;;;;5.10;2.40;;;21.80;80.40;;;;;;6884884;28;20441;-85
2022/08/09 08:27:36;;;;;;;7.65;2.60;;;21.80;80.40;;;;;;6885500;28;20485;-82
2022/08/09 08:31:00;;;;;;;8.73;2.50;;;21.90;78.90;;;;;;6885111;28;20465;-83
2022/08/09 08:34:23;;;;;;;9.35;2.60;;;22.00;78.50;;;;;;6886111;28;20437;-84
2022/08/09 08:37:45;;;;;;;5.37;2.30;;;22.20;77.50;;;;;;6894167;28;20887;-84
2022/08/09 08:41:09;;;;;;;4.65;1.98;;;22.30;75.90;;;;;;6902678;28;20438;-85
2022/08/09 08:44:35;;;;;;;4.72;1.90;;;22.50;74.10;;;;;;6890366;28;20434;-83
2022/08/09 08:47:59;;;;;;;4.30;1.90;;;22.60;72.50;;;;;;6884934;28;20453;-83
2022/08/09 08:51:22;;;;;;;4.15;1.75;;;22.70;72.40;;;;;;6885263;28;20430;-78
2022/08/09 08:54:45;;;;;;;4.93;1.80;;;22.80;71.70;;;;;;6884180;28;20434;-82
2022/08/09 08:58:07;;;;;;;4.75;2.35;;;23.00;69.40;;;;;;6885681;28;20501;-82
2022/08/09 09:01:30;;;;;;;5.03;2.50;;;23.20;68.90;;;;;;6885283;28;20506;-83
2022/08/09 09:04:55;;;;;;;4.65;2.20;;;23.40;67.20;;;;;;6884501;28;20939;-83
2022/08/09 09:08:19;;;;;;;4.85;1.80;;;23.40;67.20;;;;;;6892146;28;20895;-84
2022/08/09 09:11:43;;;;;;;4.97;1.80;;;23.50;67.20;;;;;;6892595;28;20475;-79
2022/08/09 09:15:06;;;;;;;4.25;1.70;;;23.50;67.30;;;;;;6891340;28;20470;-78
2022/08/09 09:18:28;;;;;;;5.03;1.80;;;23.70;67.30;;;;;;6888653;28;20426;-80
2022/08/09 09:22:01;;;;;;;3.83;1.73;;;23.80;65.20;;;;;;6887742;28;20792;-80
2022/08/09 09:25:35;;;;;;;4.50;2.03;;;23.80;63.50;;;;;;6887975;28;20514;-79
2022/08/09 09:28:57;;;;;;;5.33;2.00;;;23.90;62.90;;;;;;6893492;28;20426;-82
2022/08/09 09:32:21;;;;;;;4.63;1.80;;;24.00;63.20;;;;;;6892124;28;20430;-79
2022/08/09 09:35:54;;;;;;;4.40;1.80;;;24.10;62.60;;;;;;6887829;28;20438;-82
2022/08/09 09:39:18;;;;;;;5.38;2.00;;;24.20;63.20;;;;;;6888174;28;21047;-82
2022/08/09 09:42:40;;;;;;;6.80;2.15;;;24.20;63.10;;;;;;6888126;28;20465;-79
2022/08/09 09:46:02;;;;;;;4.18;1.73;;;24.30;62.80;;;;;;6888689;28;20769;-84
2022/08/09 09:49:25;;;;;;;4.28;1.88;;;24.30;61.00;;;;;;6888181;28;20454;-78
2022/08/09 09:52:51;;;;;;;4.47;2.20;;;24.40;61.70;;;;;;6886820;28;20503;-80
2022/08/09 09:56:15;;;;;;;5.22;2.03;;;24.50;62.60;;;;;;6888837;28;20795;-79
2022/08/09 09:59:37;;;;;;;4.68;1.70;;;24.50;61.20;;;;;;6893238;28;20450;-80
2022/08/09 10:02:59;;;;;;;5.88;2.20;;;24.60;60.00;;;;;;6908662;28;20434;-80
2022/08/09 10:06:22;;;;;;;4.43;1.73;;;24.60;59.30;;;;;;6911556;28;20446;-80
2022/08/09 10:09:49;;;;;;;4.05;1.80;;;24.70;59.20;;;;;;6912087;28;20439;-79
2022/08/09 10:13:12;;;;;;;4.95;2.50;;;24.80;59.40;;;;;;6902881;28;20437;-78
2022/08/09 10:16:37;;;;;;;5.57;2.10;;;24.80;60.00;;;;;;6901418;28;20438;-81
2022/08/09 10:20:00;;;;;;;5.95;1.98;;;25.00;59.40;;;;;;6904511;28;20434;-81
2022/08/09 10:23:22;;;;;;;4.65;1.80;;;25.10;58.90;;;;;;6899771;28;20437;-79
2022/08/09 10:26:47;;;;;;;5.68;1.83;;;25.10;58.70;;;;;;6886397;28;20442;-81
2022/08/09 10:30:13;;;;;;;4.72;1.70;;;25.10;58.50;;;;;;6886453;28;20477;-79
2022/08/09 10:33:35;;;;;;;3.90;1.90;;;25.10;58.90;;;;;;6895397;28;20434;-80
2022/08/09 10:36:57;;;;;;;4.60;2.03;;;25.20;59.00;;;;;;6898036;28;20453;-80
2022/08/09 10:40:20;;;;;;;5.07;1.88;;;25.20;58.90;;;;;;6901396;28;20650;-79
2022/08/09 10:43:45;;;;;;;4.93;1.73;;;25.30;58.50;;;;;;6905452;28;20864;-78
2022/08/09 10:47:40;;;;;;;5.90;1.90;;;25.40;58.40;;;;;;6899240;28;20984;-80
2022/08/09 10:51:17;;;;;;;5.53;2.00;;;25.50;57.40;;;;;;6886979;28;20545;-81
2022/08/09 10:54:39;;;;;;;7.00;1.98;;;25.50;57.70;;;;;;6885931;28;20452;-80
2022/08/09 10:58:02;;;;;;;4.75;1.80;;;25.60;58.00;;;;;;6886427;28;20935;-79
2022/08/09 11:01:42;;;;;;;6.18;1.90;;;25.60;56.80;;;;;;6888990;28;20773;-80
2022/08/09 11:05:15;;;;;;;4.72;1.80;;;25.60;57.80;;;;;;6891216;28;20442;-80
2022/08/09 11:08:42;;;;;;;4.53;1.80;;;25.80;57.40;;;;;;6905084;28;20948;-79
2022/08/09 11:12:13;;;;;;;4.00;1.80;;;25.90;55.70;;;;;;6906345;28;20457;-80
2022/08/09 11:15:35;;;;;;;4.63;1.88;;;25.90;56.20;;;;;;6908384;28;20434;-81
2022/08/09 11:18:58;;;;;;;5.13;1.73;;;25.90;56.50;;;;;;6899084;28;20948;-78
2022/08/09 11:22:23;;;;;;;4.70;1.77;;;26.00;56.80;;;;;;6905047;28;20434;-79
2022/08/09 11:25:48;;;;;;;5.97;1.70;;;26.10;55.60;;;;;;6905804;28;20430;-80
2022/08/09 11:29:53;;;;;;;6.85;2.25;;;26.10;53.70;;;;;;6890653;28;20528;-79
2022/08/09 11:33:40;;;;;;;4.28;1.80;;;26.30;54.40;;;;;;6887525;28;20924;-75
2022/08/09 11:37:03;;;;;;;4.65;1.60;;;26.30;53.70;;;;;;6888746;28;20441;-82
2022/08/09 11:40:31;;;;;;;5.35;2.00;;;26.40;54.50;;;;;;6905371;28;20840;-87
2022/08/09 11:43:54;;;;;;;6.47;1.90;;;26.50;52.20;;;;;;6902755;28;20450;-87
2022/08/09 11:47:16;;;;;;;4.50;1.85;;;26.60;52.50;;;;;;6894918;28;20438;-87
2022/08/09 11:51:03;;;;;;;4.13;1.52;;;26.80;51.40;;;;;;6906276;28;20457;-86
2022/08/09 11:54:25;;;;;;;5.63;1.90;;;26.80;51.20;;;;;;6905807;28;20430;-86
2022/08/09 11:57:49;;;;;;;4.13;1.77;;;26.90;51.10;;;;;;6906317;28;20469;-87
2022/08/09 12:01:13;;;;;;;4.67;1.73;;;27.10;51.00;;;;;;6904235;28;20799;-87
2022/08/09 12:04:36;;;;;;;4.20;1.55;;;27.10;49.80;;;;;;6892547;28;20441;-87
2022/08/09 12:07:59;;;;;;;4.82;1.67;;;27.00;50.50;;;;;;6888603;28;20445;-87
2022/08/09 12:11:24;;;;;;;7.18;1.98;;;27.30;50.60;;;;;;6887024;28;20492;-86
2022/08/09 12:14:48;;;;;;;5.53;1.67;;;27.50;50.90;;;;;;6885089;28;20446;-85
2022/08/09 12:18:16;;;;;;;5.15;1.70;;;27.50;50.50;;;;;;6887837;28;20496;-85
2022/08/09 12:21:41;;;;;;;5.70;2.37;;;27.50;50.80;;;;;;6888060;28;20438;-82
2022/08/09 12:25:14;;;;;;;5.90;1.83;;;27.70;51.30;;;;;;6888559;28;20434;-81
2022/08/09 12:28:38;;;;;;;5.30;1.67;;;27.80;50.70;;;;;;6884024;28;20923;-79
2022/08/09 12:32:05;;;;;;;4.23;1.50;;;27.90;50.80;;;;;;6884562;28;20480;-80
2022/08/09 12:35:27;;;;;;;4.10;1.60;;;28.10;49.80;;;;;;6884628;28;20442;-80
2022/08/09 12:38:50;;;;;;;4.00;1.67;;;28.10;49.10;;;;;;6882873;28;20449;-80
2022/08/09 12:42:14;;;;;;;4.10;1.40;;;28.20;49.40;;;;;;6885301;28;20437;-80
2022/08/09 12:45:36;;;;;;;4.57;1.65;;;28.30;48.80;;;;;;6888323;28;20529;-79
2022/08/09 12:49:00;;;;;;;5.97;1.60;;;28.40;49.50;;;;;;6888069;28;20951;-79
2022/08/09 12:52:22;;;;;;;5.50;1.48;;;28.60;49.50;;;;;;6888665;28;20460;-81
2022/08/09 12:55:44;;;;;;;3.83;1.52;;;28.40;48.30;;;;;;6888705;28;20491;-79
2022/08/09 12:59:09;;;;;;;6.55;2.30;;;28.50;49.20;;;;;;6888374;28;20442;-80
2022/08/09 13:02:53;;;;;;;3.90;1.70;;;28.70;50.10;;;;;;6888647;28;20507;-80
2022/08/09 13:06:30;;;;;;;5.30;1.48;;;28.60;49.10;;;;;;6895909;28;20499;-80
2022/08/09 13:10:02;;;;;;;3.90;1.58;;;28.70;48.20;;;;;;6891496;28;21033;-79
2022/08/09 13:13:30;;;;;;;7.00;1.80;;;28.80;47.60;;;;;;6886489;28;20837;-80
2022/08/09 13:16:55;;;;;;;3.70;1.60;;;29.00;47.60;;;;;;6888542;28;20442;-81
2022/08/09 13:20:20;;;;;;;4.40;1.40;;;29.00;47.30;;;;;;6888633;28;20441;-80
2022/08/09 13:23:44;;;;;;;3.30;1.40;;;29.20;47.30;;;;;;6887077;28;20463;-81
2022/08/09 13:27:26;;;;;;;3.53;1.50;;;29.30;47.00;;;;;;6887708;28;20445;-80
2022/08/09 13:31:07;;;;;;;4.32;1.55;;;29.40;46.40;;;;;;6887758;28;20449;-80
2022/08/09 13:34:33;;;;;;;4.78;1.30;;;29.40;47.30;;;;;;6887457;28;20529;-81
2022/08/09 13:37:55;;;;;;;4.00;1.50;;;29.50;45.30;;;;;;6888288;28;20437;-81
2022/08/09 13:41:22;;;;;;;4.85;1.60;;;29.60;46.60;;;;;;6887805;28;20430;-82
2022/08/09 13:44:45;;;;;;;4.10;1.70;;;29.70;46.00;;;;;;6887464;28;20430;-81
2022/08/09 13:48:07;;;;;;;4.25;1.60;;;29.80;46.00;;;;;;6895574;28;20598;-80
2022/08/09 13:51:30;;;;;;;3.45;1.58;;;29.70;45.70;;;;;;6914719;28;21032;-80
2022/08/09 13:54:52;;;;;;;5.35;1.50;;;29.90;46.00;;;;;;6901314;28;20946;-80
2022/08/09 13:58:15;;;;;;;3.83;1.30;;;29.90;45.40;;;;;;6900374;28;20830;-81
2022/08/09 14:01:38;;;;;;;3.30;1.35;;;30.00;45.50;;;;;;6888693;28;20482;-82
2022/08/09 14:05:00;;;;;;;4.03;1.33;;;30.10;44.70;;;;;;6886085;28;20452;-81
2022/08/09 14:08:22;;;;;;;5.07;1.40;;;30.20;44.00;;;;;;6914083;28;20455;-79
2022/08/09 14:11:44;;;;;;;3.47;1.40;;;30.30;44.00;;;;;;6904737;28;20445;-82
2022/08/09 14:15:09;;;;;;;4.70;1.50;;;30.50;43.70;;;;;;6892521;28;20439;-80
2022/08/09 14:18:31;;;;;;;4.05;1.30;;;30.40;44.70;;;;;;6913262;28;20443;-75
2022/08/09 14:21:53;;;;;;;5.07;1.40;;;30.30;43.90;;;;;;6915189;28;20443;-87
2022/08/09 14:25:15;;;;;;;4.45;1.40;;;30.50;43.40;;;;;;6915803;28;20439;-83
2022/08/09 14:28:37;;;;;;;4.25;1.30;;;30.60;43.90;;;;;;6914900;28;20850;-86
2022/08/09 14:32:01;;;;;;;4.83;1.33;;;30.70;43.30;;;;;;6901269;28;20448;-85
2022/08/09 14:35:23;;;;;;;4.43;1.48;;;30.60;43.70;;;;;;6894958;28;20441;-83
2022/08/09 14:38:45;;;;;;;3.78;1.40;;;30.80;43.80;;;;;;6907684;28;20950;-82
2022/08/09 14:42:08;;;;;;;3.35;1.30;;;30.60;43.50;;;;;;6889868;28;20439;-83
2022/08/09 14:45:30;;;;;;;5.13;1.30;;;30.80;43.60;;;;;;6912523;28;20467;-82
2022/08/09 14:48:53;;;;;;;4.43;1.30;;;31.10;43.00;;;;;;6912412;28;20433;-82
2022/08/09 14:52:16;;;;;;;4.60;1.50;;;31.10;43.10;;;;;;6905242;28;20511;-83
2022/08/09 14:55:38;;;;;;;4.30;1.50;;;31.00;43.40;;;;;;6911746;28;20958;-83
2022/08/09 14:59:00;;;;;;;3.50;1.30;;;31.10;42.90;;;;;;6912443;28;20440;-82
2022/08/09 15:02:22;;;;;;;4.20;1.45;;;31.00;43.60;;;;;;6895292;28;20453;-82
2022/08/09 15:05:45;;;;;;;4.82;1.40;;;31.00;43.30;;;;;;6885391;28;20896;-82
2022/08/09 15:09:08;;;;;;;4.00;1.40;;;31.00;43.10;;;;;;6883002;28;20839;-83
2022/08/09 15:12:30;;;;;;;4.45;1.40;;;31.10;43.20;;;;;;6897790;28;20433;-83
2022/08/09 15:15:52;;;;;;;3.65;1.42;;;31.10;41.70;;;;;;6903902;28;20441;-83
2022/08/09 15:19:16;;;;;;;4.75;1.60;;;31.10;42.10;;;;;;6902420;28;20460;-82
2022/08/09 15:22:40;;;;;;;4.93;1.70;;;31.30;42.70;;;;;;6907676;28;20440;-83
2022/08/09 15:26:02;;;;;;;4.07;1.52;;;31.60;42.70;;;;;;6906790;28;20436;-81
2022/08/09 15:29:24;;;;;;;3.40;1.27;;;31.40;42.80;;;;;;6910392;28;20948;-82
2022/08/09 15:32:46;;;;;;;4.82;1.20;;;31.50;41.90;;;;;;6901453;28;20467;-83
2022/08/09 15:36:08;;;;;;;3.78;1.45;;;31.60;42.50;;;;;;6894331;28;20481;-82
2022/08/09 15:39:32;;;;;;;3.88;1.40;;;31.30;42.70;;;;;;6886964;28;20467;-79
2022/08/09 15:42:54;;;;;;;4.50;1.50;;;31.40;42.50;;;;;;6888074;28;20442;-79
2022/08/09 15:46:16;;;;;;;3.95;1.40;;;31.40;43.00;;;;;;6888384;28;20469;-83
2022/08/09 15:49:38;;;;;;;4.65;1.35;;;31.30;42.60;;;;;;6889317;28;20452;-83
2022/08/09 15:53:00;;;;;;;3.97;1.30;;;31.20;42.10;;;;;;6883601;28;20491;-83
2022/08/09 15:56:24;;;;;;;3.33;1.30;;;31.30;41.80;;;;;;6884179;28;20924;-84
2022/08/09 15:59:46;;;;;;;3.05;1.38;;;31.50;41.60;;;;;;6884365;28;20472;-85
2022/08/09 16:03:08;;;;;;;4.18;1.30;;;31.70;42.00;;;;;;6888365;28;20445;-83
2022/08/09 16:06:30;;;;;;;3.13;1.37;;;31.90;41.30;;;;;;6891999;28;20446;-86
2022/08/09 16:09:54;;;;;;;3.33;1.30;;;31.90;41.40;;;;;;6884062;28;20446;-82
2022/08/09 16:13:17;;;;;;;5.30;1.45;;;32.20;41.60;;;;;;6881572;28;20431;-82
2022/08/09 16:16:40;;;;;;;3.50;1.33;;;32.20;41.30;;;;;;6888002;28;20447;-83
2022/08/09 16:20:04;;;;;;;4.80;1.20;;;32.20;41.90;;;;;;6897009;28;20830;-83
2022/08/09 16:23:26;;;;;;;5.05;1.27;;;32.20;42.40;;;;;;6884383;28;20442;-82
2022/08/09 16:26:48;;;;;;;4.65;1.30;;;32.20;41.60;;;;;;6865725;28;20445;-84
2022/08/09 16:30:14;;;;;;;3.08;1.38;;;32.10;42.90;;;;;;6889759;28;20450;-83
2022/08/09 16:33:42;;;;;;;4.13;1.25;;;32.40;41.80;;;;;;6889728;28;20452;-82
2022/08/09 16:37:06;;;;;;;4.50;1.40;;;32.30;41.70;;;;;;6892272;28;20511;-83
2022/08/09 16:40:28;;;;;;;4.90;1.48;;;31.90;41.70;;;;;;6896395;28;20438;-84
2022/08/09 16:43:51;;;;;;;5.53;1.40;;;31.60;42.30;;;;;;6902860;28;20443;-84
2022/08/09 16:47:15;;;;;;;3.58;1.35;;;31.80;42.70;;;;;;6890404;28;20947;-84
2022/08/09 16:50:37;;;;;;;4.07;1.50;;;31.80;42.80;;;;;;6910439;28;20940;-83
2022/08/09 16:53:59;;;;;;;3.33;1.40;;;31.80;42.50;;;;;;6904230;28;21082;-85
2022/08/09 16:57:24;;;;;;;5.80;1.50;;;31.80;42.90;;;;;;6887437;28;20969;-85
2022/08/09 17:00:46;;;;;;;4.18;1.60;;;31.60;43.50;;;;;;6884799;28;20560;-85
2022/08/09 17:04:10;;;;;;;4.13;1.42;;;31.60;43.50;;;;;;6895221;28;20536;-84
2022/08/09 17:07:32;;;;;;;3.53;1.50;;;31.80;43.70;;;;;;6885699;28;20468;-84
2022/08/09 17:10:55;;;;;;;4.67;1.40;;;31.80;43.40;;;;;;6888207;28;20797;-83
2022/08/09 17:14:17;;;;;;;4.40;1.50;;;31.90;43.00;;;;;;6887823;28;20449;-82
2022/08/09 17:17:39;;;;;;;5.75;1.40;;;32.00;43.30;;;;;;6884039;28;20928;-84
2022/08/09 17:21:03;;;;;;;4.28;1.48;;;31.90;42.80;;;;;;6895653;28;20441;-84
2022/08/09 17:24:25;;;;;;;4.33;1.43;;;32.00;42.90;;;;;;6881334;28;20452;-84
2022/08/09 17:27:48;;;;;;;3.70;1.40;;;31.90;43.30;;;;;;6862200;28;20490;-84
2022/08/09 17:31:10;;;;;;;3.83;1.70;;;32.00;42.80;;;;;;6843782;28;20866;-81
2022/08/09 17:34:34;;;;;;;3.97;1.30;;;32.00;43.20;;;;;;6860454;28;20476;-81
2022/08/09 17:37:59;;;;;;;4.33;1.50;;;31.80;42.40;;;;;;6885480;28;20434;-88
2022/08/09 17:41:21;;;;;;;3.78;1.33;;;31.80;42.70;;;;;;6891817;28;20449;-85
2022/08/09 17:44:43;;;;;;;4.57;1.60;;;31.80;42.90;;;;;;6887127;28;20483;-81